首页
METAR-TAF:

METAR-TAF

机场 :

奧格斯堡機場

奥格斯堡, 德国

纬度: 48-26N, 经度: 010-56E, 海拔: 461米

当前天气观测

该预报发布于37分钟前的10:20 UTC
风速3节,风向东转东南,在东转东北南转南东之间变化
温度 3°C
湿度 93%
气压 1010 hPa
能見度: 8000
阴天层高于700英尺

METAR: EDMA 221020Z 11003KT 060V150 8000 OVC007 03/02 Q1010

时间: 11:57 (10:57 UTC)

预报

该预报发布于2小时和57分钟前的08:00 UTC
预报有效从22日的 09点(UTC)到 22日的 18点(UTC)
风速5节,风向东转东南
能見度: 9000
阴天层高于600英尺
短暂存在
从 22日的 12点(UTC)到 22日的 16点(UTC)
多云层高于1000英尺

TAF: EDMA 220800Z 2209/2218 12005KT 9000 OVC006 TEMPO 2212/2216 BKN010

超过4000个机场的气象观测和天气预报(METAR&TAF报告)。

可查询的气象台以黄色和红色小点在地图上表示。

将鼠标移到小点上方,可查看气象台名称。

然后点击查看天气观测和预报。

如需切换地图:点击带黑十字的绿色按钮放大地图;点击带横线的绿色按钮缩小地图;或者点击绿色箭头查看邻近地区的地图。


METAR-TAF: